sensor_id;sensor_type;location;lat;lon;timestamp;P1;durP1;ratioP1;P2;durP2;ratioP2
18857;SDS011;9558;50.178;8.370;2023-06-14T00:02:02;3.03;;;1.98;;
18857;SDS011;9558;50.178;8.370;2023-06-14T00:04:51;3.10;;;2.10;;
18857;SDS011;9558;50.178;8.370;2023-06-14T00:07:38;2.42;;;1.98;;
18857;SDS011;9558;50.178;8.370;2023-06-14T00:10:30;3.85;;;2.10;;
18857;SDS011;9558;50.178;8.370;2023-06-14T00:13:18;5.43;;;2.58;;
18857;SDS011;9558;50.178;8.370;2023-06-14T00:16:05;4.22;;;1.90;;
18857;SDS011;9558;50.178;8.370;2023-06-14T00:18:52;2.58;;;1.73;;
18857;SDS011;9558;50.178;8.370;2023-06-14T00:21:40;4.93;;;1.83;;
18857;SDS011;9558;50.178;8.370;2023-06-14T00:24:28;2.97;;;1.90;;
18857;SDS011;9558;50.178;8.370;2023-06-14T00:27:15;3.10;;;2.10;;
18857;SDS011;9558;50.178;8.370;2023-06-14T00:30:02;2.92;;;2.00;;
18857;SDS011;9558;50.178;8.370;2023-06-14T00:32:49;2.90;;;1.65;;
18857;SDS011;9558;50.178;8.370;2023-06-14T00:35:36;5.88;;;2.17;;
18857;SDS011;9558;50.178;8.370;2023-06-14T00:38:24;4.57;;;1.67;;
18857;SDS011;9558;50.178;8.370;2023-06-14T00:41:11;2.00;;;1.50;;
18857;SDS011;9558;50.178;8.370;2023-06-14T00:43:58;5.70;;;2.03;;
18857;SDS011;9558;50.178;8.370;2023-06-14T00:46:45;6.10;;;2.00;;
18857;SDS011;9558;50.178;8.370;2023-06-14T00:49:32;2.60;;;1.67;;
18857;SDS011;9558;50.178;8.370;2023-06-14T00:52:19;4.35;;;1.63;;
18857;SDS011;9558;50.178;8.370;2023-06-14T00:55:08;2.60;;;1.83;;
18857;SDS011;9558;50.178;8.370;2023-06-14T00:57:55;4.35;;;2.00;;
18857;SDS011;9558;50.178;8.370;2023-06-14T01:00:42;2.72;;;1.75;;
18857;SDS011;9558;50.178;8.370;2023-06-14T01:03:29;5.20;;;1.85;;
18857;SDS011;9558;50.178;8.370;2023-06-14T01:06:19;3.05;;;1.80;;
18857;SDS011;9558;50.178;8.370;2023-06-14T01:09:15;3.60;;;1.90;;
18857;SDS011;9558;50.178;8.370;2023-06-14T01:12:07;3.70;;;1.85;;
18857;SDS011;9558;50.178;8.370;2023-06-14T01:15:00;2.25;;;1.80;;
18857;SDS011;9558;50.178;8.370;2023-06-14T01:17:48;1.88;;;1.40;;
18857;SDS011;9558;50.178;8.370;2023-06-14T01:20:36;2.42;;;2.00;;
18857;SDS011;9558;50.178;8.370;2023-06-14T01:23:25;2.65;;;1.92;;
18857;SDS011;9558;50.178;8.370;2023-06-14T01:26:18;1.83;;;1.63;;
18857;SDS011;9558;50.178;8.370;2023-06-14T01:29:05;3.25;;;1.70;;
18857;SDS011;9558;50.178;8.370;2023-06-14T01:31:53;2.42;;;1.75;;
18857;SDS011;9558;50.178;8.370;2023-06-14T01:34:40;3.47;;;1.70;;
18857;SDS011;9558;50.178;8.370;2023-06-14T01:37:27;5.63;;;1.65;;
18857;SDS011;9558;50.178;8.370;2023-06-14T01:40:17;2.50;;;1.52;;
18857;SDS011;9558;50.178;8.370;2023-06-14T01:43:05;3.40;;;1.77;;
18857;SDS011;9558;50.178;8.370;2023-06-14T01:45:53;4.47;;;1.90;;
18857;SDS011;9558;50.178;8.370;2023-06-14T01:48:40;3.40;;;1.90;;
18857;SDS011;9558;50.178;8.370;2023-06-14T01:51:28;1.55;;;1.38;;
18857;SDS011;9558;50.178;8.370;2023-06-14T01:54:14;2.65;;;1.90;;
18857;SDS011;9558;50.178;8.370;2023-06-14T01:57:03;3.10;;;1.77;;
18857;SDS011;9558;50.178;8.370;2023-06-14T01:59:49;3.65;;;2.00;;
18857;SDS011;9558;50.178;8.370;2023-06-14T02:02:36;3.00;;;1.88;;
18857;SDS011;9558;50.178;8.370;2023-06-14T02:05:23;2.65;;;1.80;;
18857;SDS011;9558;50.178;8.370;2023-06-14T02:08:10;2.75;;;1.90;;
18857;SDS011;9558;50.178;8.370;2023-06-14T02:10:57;5.65;;;1.70;;
18857;SDS011;9558;50.178;8.370;2023-06-14T02:13:45;2.38;;;1.77;;
18857;SDS011;9558;50.178;8.370;2023-06-14T02:16:32;2.22;;;1.92;;
18857;SDS011;9558;50.178;8.370;2023-06-14T02:19:21;5.00;;;1.60;;
18857;SDS011;9558;50.178;8.370;2023-06-14T02:22:07;2.33;;;1.65;;
18857;SDS011;9558;50.178;8.370;2023-06-14T02:24:54;4.05;;;1.85;;
18857;SDS011;9558;50.178;8.370;2023-06-14T02:27:41;3.03;;;2.00;;
18857;SDS011;9558;50.178;8.370;2023-06-14T02:30:29;2.47;;;1.75;;
18857;SDS011;9558;50.178;8.370;2023-06-14T02:33:16;3.88;;;1.92;;
18857;SDS011;9558;50.178;8.370;2023-06-14T02:36:03;1.75;;;1.42;;
18857;SDS011;9558;50.178;8.370;2023-06-14T02:38:50;2.60;;;1.95;;
18857;SDS011;9558;50.178;8.370;2023-06-14T02:41:39;2.72;;;1.77;;
18857;SDS011;9558;50.178;8.370;2023-06-14T02:44:26;3.15;;;1.70;;
18857;SDS011;9558;50.178;8.370;2023-06-14T02:47:15;3.65;;;1.77;;
18857;SDS011;9558;50.178;8.370;2023-06-14T02:50:01;4.35;;;1.80;;
18857;SDS011;9558;50.178;8.370;2023-06-14T02:52:48;3.80;;;1.52;;
18857;SDS011;9558;50.178;8.370;2023-06-14T02:55:35;3.67;;;1.95;;
18857;SDS011;9558;50.178;8.370;2023-06-14T02:58:25;3.33;;;1.95;;
18857;SDS011;9558;50.178;8.370;2023-06-14T03:01:11;2.33;;;1.80;;
18857;SDS011;9558;50.178;8.370;2023-06-14T03:04:00;6.70;;;1.83;;
18857;SDS011;9558;50.178;8.370;2023-06-14T03:06:48;3.55;;;1.80;;
18857;SDS011;9558;50.178;8.370;2023-06-14T03:09:35;2.22;;;1.70;;
18857;SDS011;9558;50.178;8.370;2023-06-14T03:12:23;2.67;;;1.70;;
18857;SDS011;9558;50.178;8.370;2023-06-14T03:15:10;4.45;;;1.80;;
18857;SDS011;9558;50.178;8.370;2023-06-14T03:17:58;3.75;;;1.85;;
18857;SDS011;9558;50.178;8.370;2023-06-14T03:20:46;3.90;;;1.90;;
18857;SDS011;9558;50.178;8.370;2023-06-14T03:23:33;3.80;;;1.83;;
18857;SDS011;9558;50.178;8.370;2023-06-14T03:26:20;4.95;;;1.80;;
18857;SDS011;9558;50.178;8.370;2023-06-14T03:29:07;3.63;;;1.85;;
18857;SDS011;9558;50.178;8.370;2023-06-14T03:31:57;3.42;;;1.80;;
18857;SDS011;9558;50.178;8.370;2023-06-14T03:34:45;2.88;;;1.67;;
18857;SDS011;9558;50.178;8.370;2023-06-14T03:37:33;6.03;;;1.95;;
18857;SDS011;9558;50.178;8.370;2023-06-14T03:40:20;2.35;;;2.10;;
18857;SDS011;9558;50.178;8.370;2023-06-14T03:43:07;2.55;;;1.67;;
18857;SDS011;9558;50.178;8.370;2023-06-14T03:45:55;3.83;;;1.80;;
18857;SDS011;9558;50.178;8.370;2023-06-14T03:48:41;2.42;;;1.52;;
18857;SDS011;9558;50.178;8.370;2023-06-14T03:51:28;2.33;;;1.75;;
18857;SDS011;9558;50.178;8.370;2023-06-14T03:54:17;2.58;;;1.95;;
18857;SDS011;9558;50.178;8.370;2023-06-14T03:57:04;2.60;;;1.98;;
18857;SDS011;9558;50.178;8.370;2023-06-14T03:59:51;2.53;;;1.67;;
18857;SDS011;9558;50.178;8.370;2023-06-14T04:02:38;2.67;;;1.90;;
18857;SDS011;9558;50.178;8.370;2023-06-14T04:05:25;1.88;;;1.40;;
18857;SDS011;9558;50.178;8.370;2023-06-14T04:08:12;4.82;;;2.28;;
18857;SDS011;9558;50.178;8.370;2023-06-14T04:11:01;3.25;;;1.75;;
18857;SDS011;9558;50.178;8.370;2023-06-14T04:13:48;2.55;;;1.70;;
18857;SDS011;9558;50.178;8.370;2023-06-14T04:16:35;7.47;;;2.28;;
18857;SDS011;9558;50.178;8.370;2023-06-14T04:19:22;6.13;;;2.22;;
18857;SDS011;9558;50.178;8.370;2023-06-14T04:22:08;2.90;;;1.65;;
18857;SDS011;9558;50.178;8.370;2023-06-14T04:24:56;3.55;;;1.98;;
18857;SDS011;9558;50.178;8.370;2023-06-14T04:27:45;4.57;;;1.85;;
18857;SDS011;9558;50.178;8.370;2023-06-14T04:30:32;2.42;;;1.52;;
18857;SDS011;9558;50.178;8.370;2023-06-14T04:33:20;1.90;;;1.50;;
18857;SDS011;9558;50.178;8.370;2023-06-14T04:36:08;3.63;;;1.95;;
18857;SDS011;9558;50.178;8.370;2023-06-14T04:38:55;3.72;;;2.00;;
18857;SDS011;9558;50.178;8.370;2023-06-14T04:41:42;2.70;;;1.90;;
18857;SDS011;9558;50.178;8.370;2023-06-14T04:44:31;2.60;;;1.70;;
18857;SDS011;9558;50.178;8.370;2023-06-14T04:47:17;2.72;;;2.00;;
18857;SDS011;9558;50.178;8.370;2023-06-14T04:50:04;3.78;;;1.92;;
18857;SDS011;9558;50.178;8.370;2023-06-14T04:52:52;4.30;;;2.33;;
18857;SDS011;9558;50.178;8.370;2023-06-14T04:55:39;3.20;;;2.00;;
18857;SDS011;9558;50.178;8.370;2023-06-14T04:58:30;4.15;;;1.88;;
18857;SDS011;9558;50.178;8.370;2023-06-14T05:01:18;5.68;;;1.77;;
18857;SDS011;9558;50.178;8.370;2023-06-14T05:04:06;4.85;;;1.65;;
18857;SDS011;9558;50.178;8.370;2023-06-14T05:06:53;1.85;;;1.45;;
18857;SDS011;9558;50.178;8.370;2023-06-14T05:09:40;5.32;;;1.95;;
18857;SDS011;9558;50.178;8.370;2023-06-14T05:12:27;2.67;;;1.80;;
18857;SDS011;9558;50.178;8.370;2023-06-14T05:15:14;3.35;;;2.20;;
18857;SDS011;9558;50.178;8.370;2023-06-14T05:18:02;4.18;;;1.98;;
18857;SDS011;9558;50.178;8.370;2023-06-14T05:20:49;2.70;;;1.65;;
18857;SDS011;9558;50.178;8.370;2023-06-14T05:23:36;2.40;;;1.50;;
18857;SDS011;9558;50.178;8.370;2023-06-14T05:26:22;2.67;;;1.90;;
18857;SDS011;9558;50.178;8.370;2023-06-14T05:29:13;2.20;;;1.58;;
18857;SDS011;9558;50.178;8.370;2023-06-14T05:32:00;2.42;;;1.73;;
18857;SDS011;9558;50.178;8.370;2023-06-14T05:34:48;4.18;;;1.80;;
18857;SDS011;9558;50.178;8.370;2023-06-14T05:37:35;2.25;;;1.70;;
18857;SDS011;9558;50.178;8.370;2023-06-14T05:40:22;3.85;;;1.80;;
18857;SDS011;9558;50.178;8.370;2023-06-14T05:43:09;1.80;;;1.33;;
18857;SDS011;9558;50.178;8.370;2023-06-14T05:45:55;5.70;;;1.85;;
18857;SDS011;9558;50.178;8.370;2023-06-14T05:48:42;3.33;;;1.75;;
18857;SDS011;9558;50.178;8.370;2023-06-14T05:51:30;4.57;;;1.48;;
18857;SDS011;9558;50.178;8.370;2023-06-14T05:54:17;3.22;;;1.70;;
18857;SDS011;9558;50.178;8.370;2023-06-14T05:57:04;2.13;;;1.67;;
18857;SDS011;9558;50.178;8.370;2023-06-14T05:59:51;2.78;;;1.73;;
18857;SDS011;9558;50.178;8.370;2023-06-14T06:02:38;2.58;;;1.83;;
18857;SDS011;9558;50.178;8.370;2023-06-14T06:05:25;2.97;;;1.65;;
18857;SDS011;9558;50.178;8.370;2023-06-14T06:08:13;3.78;;;1.65;;
18857;SDS011;9558;50.178;8.370;2023-06-14T06:11:02;3.20;;;1.88;;
18857;SDS011;9558;50.178;8.370;2023-06-14T06:13:48;3.63;;;1.75;;
18857;SDS011;9558;50.178;8.370;2023-06-14T06:16:36;7.00;;;1.75;;
18857;SDS011;9558;50.178;8.370;2023-06-14T06:19:22;3.17;;;1.50;;
18857;SDS011;9558;50.178;8.370;2023-06-14T06:22:09;2.88;;;1.70;;
18857;SDS011;9558;50.178;8.370;2023-06-14T06:24:57;3.13;;;1.67;;
18857;SDS011;9558;50.178;8.370;2023-06-14T06:27:44;2.47;;;1.40;;
18857;SDS011;9558;50.178;8.370;2023-06-14T06:30:31;3.50;;;1.42;;
18857;SDS011;9558;50.178;8.370;2023-06-14T06:33:18;2.53;;;1.52;;
18857;SDS011;9558;50.178;8.370;2023-06-14T06:36:05;1.65;;;1.17;;
18857;SDS011;9558;50.178;8.370;2023-06-14T06:38:51;2.05;;;1.60;;
18857;SDS011;9558;50.178;8.370;2023-06-14T06:41:40;3.25;;;1.00;;
18857;SDS011;9558;50.178;8.370;2023-06-14T06:44:26;4.13;;;1.08;;
18857;SDS011;9558;50.178;8.370;2023-06-14T06:47:13;4.43;;;1.45;;
18857;SDS011;9558;50.178;8.370;2023-06-14T06:50:00;1.00;;;0.77;;
18857;SDS011;9558;50.178;8.370;2023-06-14T06:52:47;1.35;;;1.00;;
18857;SDS011;9558;50.178;8.370;2023-06-14T06:55:33;3.13;;;1.20;;
18857;SDS011;9558;50.178;8.370;2023-06-14T06:58:21;0.93;;;0.88;;
18857;SDS011;9558;50.178;8.370;2023-06-14T07:01:08;1.15;;;0.68;;
18857;SDS011;9558;50.178;8.370;2023-06-14T07:03:55;2.25;;;1.05;;
18857;SDS011;9558;50.178;8.370;2023-06-14T07:06:42;1.30;;;0.90;;
18857;SDS011;9558;50.178;8.370;2023-06-14T07:09:29;1.35;;;0.98;;
18857;SDS011;9558;50.178;8.370;2023-06-14T07:12:16;1.48;;;0.82;;
18857;SDS011;9558;50.178;8.370;2023-06-14T07:15:04;0.60;;;0.60;;
18857;SDS011;9558;50.178;8.370;2023-06-14T07:17:53;5.72;;;1.10;;
18857;SDS011;9558;50.178;8.370;2023-06-14T07:23:32;0.95;;;0.73;;
18857;SDS011;9558;50.178;8.370;2023-06-14T07:26:19;1.90;;;1.23;;
18857;SDS011;9558;50.178;8.370;2023-06-14T07:29:06;2.78;;;0.90;;
18857;SDS011;9558;50.178;8.370;2023-06-14T07:31:55;1.52;;;0.85;;
18857;SDS011;9558;50.178;8.370;2023-06-14T07:34:41;1.27;;;0.70;;
18857;SDS011;9558;50.178;8.370;2023-06-14T07:37:28;3.72;;;0.90;;
18857;SDS011;9558;50.178;8.370;2023-06-14T07:40:16;0.90;;;0.70;;
18857;SDS011;9558;50.178;8.370;2023-06-14T07:43:03;0.93;;;0.80;;
18857;SDS011;9558;50.178;8.370;2023-06-14T07:45:49;2.95;;;0.80;;
18857;SDS011;9558;50.178;8.370;2023-06-14T07:48:38;0.95;;;0.60;;
18857;SDS011;9558;50.178;8.370;2023-06-14T07:51:24;1.45;;;0.93;;
18857;SDS011;9558;50.178;8.370;2023-06-14T07:54:11;1.27;;;0.82;;
18857;SDS011;9558;50.178;8.370;2023-06-14T07:56:58;1.70;;;1.10;;
18857;SDS011;9558;50.178;8.370;2023-06-14T07:59:45;5.25;;;1.58;;
18857;SDS011;9558;50.178;8.370;2023-06-14T08:02:32;0.98;;;0.93;;
18857;SDS011;9558;50.178;8.370;2023-06-14T08:05:20;1.00;;;0.88;;
18857;SDS011;9558;50.178;8.370;2023-06-14T08:08:07;1.35;;;1.10;;
18857;SDS011;9558;50.178;8.370;2023-06-14T08:10:54;1.65;;;0.85;;
18857;SDS011;9558;50.178;8.370;2023-06-14T08:13:41;0.70;;;0.70;;
18857;SDS011;9558;50.178;8.370;2023-06-14T08:16:28;0.65;;;0.65;;
18857;SDS011;9558;50.178;8.370;2023-06-14T08:19:14;2.40;;;0.90;;
18857;SDS011;9558;50.178;8.370;2023-06-14T08:22:04;1.15;;;0.75;;
18857;SDS011;9558;50.178;8.370;2023-06-14T08:24:51;0.88;;;0.70;;
18857;SDS011;9558;50.178;8.370;2023-06-14T08:27:38;1.67;;;0.70;;
18857;SDS011;9558;50.178;8.370;2023-06-14T08:30:25;0.82;;;0.80;;
18857;SDS011;9558;50.178;8.370;2023-06-14T08:33:12;2.63;;;0.73;;
18857;SDS011;9558;50.178;8.370;2023-06-14T08:35:58;0.88;;;0.85;;
18857;SDS011;9558;50.178;8.370;2023-06-14T08:38:46;2.67;;;0.93;;
18857;SDS011;9558;50.178;8.370;2023-06-14T08:41:33;0.80;;;0.80;;
18857;SDS011;9558;50.178;8.370;2023-06-14T08:44:20;2.20;;;0.70;;
18857;SDS011;9558;50.178;8.370;2023-06-14T08:47:07;0.93;;;0.60;;
18857;SDS011;9558;50.178;8.370;2023-06-14T08:49:56;0.65;;;0.63;;
18857;SDS011;9558;50.178;8.370;2023-06-14T08:52:45;1.00;;;0.70;;
18857;SDS011;9558;50.178;8.370;2023-06-14T08:55:37;1.00;;;0.93;;
18857;SDS011;9558;50.178;8.370;2023-06-14T08:58:25;0.80;;;0.80;;
18857;SDS011;9558;50.178;8.370;2023-06-14T09:01:14;2.22;;;0.90;;
18857;SDS011;9558;50.178;8.370;2023-06-14T09:04:02;1.90;;;0.77;;
18857;SDS011;9558;50.178;8.370;2023-06-14T09:06:50;0.85;;;0.82;;
18857;SDS011;9558;50.178;8.370;2023-06-14T09:09:38;2.05;;;0.90;;
18857;SDS011;9558;50.178;8.370;2023-06-14T09:12:27;1.02;;;0.93;;
18857;SDS011;9558;50.178;8.370;2023-06-14T09:15:14;2.70;;;0.82;;
18857;SDS011;9558;50.178;8.370;2023-06-14T09:18:02;0.73;;;0.73;;
18857;SDS011;9558;50.178;8.370;2023-06-14T09:20:48;4.60;;;0.98;;
18857;SDS011;9558;50.178;8.370;2023-06-14T09:23:36;2.60;;;0.77;;
18857;SDS011;9558;50.178;8.370;2023-06-14T09:26:23;0.82;;;0.82;;
18857;SDS011;9558;50.178;8.370;2023-06-14T09:29:15;0.95;;;0.80;;
18857;SDS011;9558;50.178;8.370;2023-06-14T09:32:03;5.88;;;1.35;;
18857;SDS011;9558;50.178;8.370;2023-06-14T09:34:50;1.15;;;1.00;;
18857;SDS011;9558;50.178;8.370;2023-06-14T09:37:38;3.83;;;1.08;;
18857;SDS011;9558;50.178;8.370;2023-06-14T09:40:25;2.08;;;1.02;;
18857;SDS011;9558;50.178;8.370;2023-06-14T09:43:12;1.13;;;0.80;;
18857;SDS011;9558;50.178;8.370;2023-06-14T09:46:01;1.02;;;0.93;;
18857;SDS011;9558;50.178;8.370;2023-06-14T09:48:50;6.20;;;1.00;;
18857;SDS011;9558;50.178;8.370;2023-06-14T09:51:41;0.68;;;0.68;;
18857;SDS011;9558;50.178;8.370;2023-06-14T09:54:30;2.30;;;1.00;;
18857;SDS011;9558;50.178;8.370;2023-06-14T09:57:20;2.15;;;0.90;;
18857;SDS011;9558;50.178;8.370;2023-06-14T10:00:09;0.95;;;0.93;;
18857;SDS011;9558;50.178;8.370;2023-06-14T10:03:00;1.30;;;0.90;;
18857;SDS011;9558;50.178;8.370;2023-06-14T10:05:52;1.52;;;0.85;;
18857;SDS011;9558;50.178;8.370;2023-06-14T10:08:39;1.00;;;0.90;;
18857;SDS011;9558;50.178;8.370;2023-06-14T10:11:27;0.80;;;0.80;;
18857;SDS011;9558;50.178;8.370;2023-06-14T10:14:14;0.70;;;0.70;;
18857;SDS011;9558;50.178;8.370;2023-06-14T10:17:03;1.42;;;0.95;;
18857;SDS011;9558;50.178;8.370;2023-06-14T10:22:50;1.50;;;0.98;;
18857;SDS011;9558;50.178;8.370;2023-06-14T10:25:43;4.68;;;0.88;;
18857;SDS011;9558;50.178;8.370;2023-06-14T10:28:30;0.63;;;0.60;;
18857;SDS011;9558;50.178;8.370;2023-06-14T10:31:18;0.88;;;0.63;;
18857;SDS011;9558;50.178;8.370;2023-06-14T10:34:05;0.88;;;0.80;;
18857;SDS011;9558;50.178;8.370;2023-06-14T10:37:04;1.10;;;1.00;;
18857;SDS011;9558;50.178;8.370;2023-06-14T10:39:52;0.80;;;0.80;;
18857;SDS011;9558;50.178;8.370;2023-06-14T10:42:39;1.80;;;1.00;;
18857;SDS011;9558;50.178;8.370;2023-06-14T10:45:38;1.58;;;0.93;;
18857;SDS011;9558;50.178;8.370;2023-06-14T10:49:03;1.30;;;1.20;;
18857;SDS011;9558;50.178;8.370;2023-06-14T10:51:51;1.85;;;0.98;;
18857;SDS011;9558;50.178;8.370;2023-06-14T10:54:41;1.27;;;1.08;;
18857;SDS011;9558;50.178;8.370;2023-06-14T10:57:43;1.08;;;0.93;;
18857;SDS011;9558;50.178;8.370;2023-06-14T11:00:30;1.92;;;1.05;;
18857;SDS011;9558;50.178;8.370;2023-06-14T11:06:44;0.80;;;0.80;;
18857;SDS011;9558;50.178;8.370;2023-06-14T11:09:43;3.53;;;0.85;;
18857;SDS011;9558;50.178;8.370;2023-06-14T11:12:52;1.23;;;0.80;;
18857;SDS011;9558;50.178;8.370;2023-06-14T11:15:43;1.38;;;0.90;;
18857;SDS011;9558;50.178;8.370;2023-06-14T11:18:31;0.93;;;0.90;;
18857;SDS011;9558;50.178;8.370;2023-06-14T11:21:18;1.73;;;1.13;;
18857;SDS011;9558;50.178;8.370;2023-06-14T11:24:09;1.02;;;0.93;;
18857;SDS011;9558;50.178;8.370;2023-06-14T11:26:58;1.58;;;0.85;;
18857;SDS011;9558;50.178;8.370;2023-06-14T11:29:48;1.98;;;0.90;;
18857;SDS011;9558;50.178;8.370;2023-06-14T11:32:35;4.75;;;0.90;;
18857;SDS011;9558;50.178;8.370;2023-06-14T11:35:22;0.90;;;0.85;;
18857;SDS011;9558;50.178;8.370;2023-06-14T11:38:09;1.20;;;0.95;;
18857;SDS011;9558;50.178;8.370;2023-06-14T11:40:58;1.90;;;0.90;;
18857;SDS011;9558;50.178;8.370;2023-06-14T11:43:47;1.42;;;1.20;;
18857;SDS011;9558;50.178;8.370;2023-06-14T11:46:34;3.28;;;1.10;;
18857;SDS011;9558;50.178;8.370;2023-06-14T11:49:21;1.23;;;1.13;;
18857;SDS011;9558;50.178;8.370;2023-06-14T11:52:08;1.02;;;0.93;;
18857;SDS011;9558;50.178;8.370;2023-06-14T11:54:55;1.35;;;1.05;;
18857;SDS011;9558;50.178;8.370;2023-06-14T11:57:42;1.25;;;1.08;;
18857;SDS011;9558;50.178;8.370;2023-06-14T12:00:31;5.78;;;1.13;;
18857;SDS011;9558;50.178;8.370;2023-06-14T12:03:22;1.50;;;1.00;;
18857;SDS011;9558;50.178;8.370;2023-06-14T12:06:10;1.40;;;0.98;;
18857;SDS011;9558;50.178;8.370;2023-06-14T12:08:57;1.52;;;1.08;;
18857;SDS011;9558;50.178;8.370;2023-06-14T12:11:43;3.63;;;1.00;;
18857;SDS011;9558;50.178;8.370;2023-06-14T12:14:30;1.00;;;0.90;;
18857;SDS011;9558;50.178;8.370;2023-06-14T12:17:19;1.30;;;1.13;;
18857;SDS011;9558;50.178;8.370;2023-06-14T12:20:06;3.08;;;0.90;;
18857;SDS011;9558;50.178;8.370;2023-06-14T12:22:56;2.13;;;1.02;;
18857;SDS011;9558;50.178;8.370;2023-06-14T12:25:44;0.80;;;0.70;;
18857;SDS011;9558;50.178;8.370;2023-06-14T12:28:31;1.05;;;0.75;;
18857;SDS011;9558;50.178;8.370;2023-06-14T12:31:18;1.92;;;0.88;;
18857;SDS011;9558;50.178;8.370;2023-06-14T12:34:06;0.90;;;0.90;;
18857;SDS011;9558;50.178;8.370;2023-06-14T12:36:53;1.02;;;0.93;;
18857;SDS011;9558;50.178;8.370;2023-06-14T12:39:41;1.33;;;1.00;;
18857;SDS011;9558;50.178;8.370;2023-06-14T12:42:27;1.60;;;0.80;;
18857;SDS011;9558;50.178;8.370;2023-06-14T12:45:14;0.88;;;0.80;;
18857;SDS011;9558;50.178;8.370;2023-06-14T12:48:01;0.80;;;0.80;;
18857;SDS011;9558;50.178;8.370;2023-06-14T12:50:49;1.13;;;0.90;;
18857;SDS011;9558;50.178;8.370;2023-06-14T12:53:36;1.33;;;1.10;;
18857;SDS011;9558;50.178;8.370;2023-06-14T12:56:23;1.00;;;0.98;;
18857;SDS011;9558;50.178;8.370;2023-06-14T12:59:10;0.90;;;0.90;;
18857;SDS011;9558;50.178;8.370;2023-06-14T13:01:57;0.73;;;0.73;;
18857;SDS011;9558;50.178;8.370;2023-06-14T13:04:44;1.00;;;0.90;;
18857;SDS011;9558;50.178;8.370;2023-06-14T13:07:32;2.60;;;1.15;;
18857;SDS011;9558;50.178;8.370;2023-06-14T13:10:19;1.30;;;1.20;;
18857;SDS011;9558;50.178;8.370;2023-06-14T13:13:06;1.17;;;1.08;;
18857;SDS011;9558;50.178;8.370;2023-06-14T13:15:53;1.05;;;0.95;;
18857;SDS011;9558;50.178;8.370;2023-06-14T13:18:40;1.20;;;1.10;;
18857;SDS011;9558;50.178;8.370;2023-06-14T13:21:27;1.75;;;1.20;;
18857;SDS011;9558;50.178;8.370;2023-06-14T13:24:15;3.80;;;1.13;;
18857;SDS011;9558;50.178;8.370;2023-06-14T13:27:02;1.27;;;1.17;;
18857;SDS011;9558;50.178;8.370;2023-06-14T13:29:49;1.05;;;1.00;;
18857;SDS011;9558;50.178;8.370;2023-06-14T13:32:36;1.05;;;0.93;;
18857;SDS011;9558;50.178;8.370;2023-06-14T13:35:23;2.22;;;1.30;;
18857;SDS011;9558;50.178;8.370;2023-06-14T13:38:10;1.40;;;1.30;;
18857;SDS011;9558;50.178;8.370;2023-06-14T13:40:58;2.67;;;1.40;;
18857;SDS011;9558;50.178;8.370;2023-06-14T13:43:45;2.20;;;1.35;;
18857;SDS011;9558;50.178;8.370;2023-06-14T13:46:31;1.60;;;1.27;;
18857;SDS011;9558;50.178;8.370;2023-06-14T13:49:18;1.15;;;1.05;;
18857;SDS011;9558;50.178;8.370;2023-06-14T13:52:06;1.25;;;0.98;;
18857;SDS011;9558;50.178;8.370;2023-06-14T13:54:53;2.72;;;1.25;;
18857;SDS011;9558;50.178;8.370;2023-06-14T13:57:41;1.27;;;1.10;;
18857;SDS011;9558;50.178;8.370;2023-06-14T14:00:28;1.30;;;1.15;;
18857;SDS011;9558;50.178;8.370;2023-06-14T14:03:15;1.17;;;1.00;;
18857;SDS011;9558;50.178;8.370;2023-06-14T14:06:02;1.17;;;1.08;;
18857;SDS011;9558;50.178;8.370;2023-06-14T14:08:51;1.67;;;1.20;;
18857;SDS011;9558;50.178;8.370;2023-06-14T14:11:37;1.30;;;1.10;;
18857;SDS011;9558;50.178;8.370;2023-06-14T14:14:27;1.13;;;0.85;;
18857;SDS011;9558;50.178;8.370;2023-06-14T14:17:14;1.75;;;1.20;;
18857;SDS011;9558;50.178;8.370;2023-06-14T14:20:01;2.72;;;1.20;;
18857;SDS011;9558;50.178;8.370;2023-06-14T14:22:47;1.75;;;1.00;;
18857;SDS011;9558;50.178;8.370;2023-06-14T14:25:34;1.50;;;1.23;;
18857;SDS011;9558;50.178;8.370;2023-06-14T14:28:21;1.42;;;1.30;;
18857;SDS011;9558;50.178;8.370;2023-06-14T14:31:09;1.23;;;1.13;;
18857;SDS011;9558;50.178;8.370;2023-06-14T14:33:56;1.13;;;1.00;;
18857;SDS011;9558;50.178;8.370;2023-06-14T14:36:42;2.65;;;1.23;;
18857;SDS011;9558;50.178;8.370;2023-06-14T14:39:29;1.80;;;1.17;;
18857;SDS011;9558;50.178;8.370;2023-06-14T14:42:16;3.30;;;1.27;;
18857;SDS011;9558;50.178;8.370;2023-06-14T14:45:04;3.35;;;1.10;;
18857;SDS011;9558;50.178;8.370;2023-06-14T14:47:53;1.38;;;1.17;;
18857;SDS011;9558;50.178;8.370;2023-06-14T14:50:40;1.52;;;1.00;;
18857;SDS011;9558;50.178;8.370;2023-06-14T14:53:26;1.20;;;1.10;;
18857;SDS011;9558;50.178;8.370;2023-06-14T14:56:13;1.33;;;1.13;;
18857;SDS011;9558;50.178;8.370;2023-06-14T14:59:00;3.03;;;1.05;;
18857;SDS011;9558;50.178;8.370;2023-06-14T15:01:48;1.13;;;0.93;;
18857;SDS011;9558;50.178;8.370;2023-06-14T15:04:37;1.52;;;0.88;;
18857;SDS011;9558;50.178;8.370;2023-06-14T15:07:24;4.28;;;1.30;;
18857;SDS011;9558;50.178;8.370;2023-06-14T15:10:11;2.42;;;1.00;;
18857;SDS011;9558;50.178;8.370;2023-06-14T15:12:58;1.35;;;1.00;;
18857;SDS011;9558;50.178;8.370;2023-06-14T15:15:45;1.48;;;0.95;;
18857;SDS011;9558;50.178;8.370;2023-06-14T15:18:31;2.08;;;1.10;;
18857;SDS011;9558;50.178;8.370;2023-06-14T15:21:19;1.90;;;1.20;;
18857;SDS011;9558;50.178;8.370;2023-06-14T15:24:07;1.27;;;1.00;;
18857;SDS011;9558;50.178;8.370;2023-06-14T15:26:54;1.23;;;1.10;;
18857;SDS011;9558;50.178;8.370;2023-06-14T15:29:41;2.38;;;1.20;;
18857;SDS011;9558;50.178;8.370;2023-06-14T15:32:28;0.90;;;0.90;;
18857;SDS011;9558;50.178;8.370;2023-06-14T15:35:15;1.17;;;1.05;;
18857;SDS011;9558;50.178;8.370;2023-06-14T15:38:04;0.80;;;0.80;;
18857;SDS011;9558;50.178;8.370;2023-06-14T15:40:51;1.85;;;1.10;;
18857;SDS011;9558;50.178;8.370;2023-06-14T15:43:38;2.20;;;1.08;;
18857;SDS011;9558;50.178;8.370;2023-06-14T15:46:25;1.27;;;1.13;;
18857;SDS011;9558;50.178;8.370;2023-06-14T15:49:12;1.75;;;1.13;;
18857;SDS011;9558;50.178;8.370;2023-06-14T15:51:59;1.42;;;1.30;;
18857;SDS011;9558;50.178;8.370;2023-06-14T15:54:48;1.50;;;1.10;;
18857;SDS011;9558;50.178;8.370;2023-06-14T15:57:34;2.42;;;1.25;;
18857;SDS011;9558;50.178;8.370;2023-06-14T16:00:21;2.83;;;1.13;;
18857;SDS011;9558;50.178;8.370;2023-06-14T16:03:08;1.17;;;1.08;;
18857;SDS011;9558;50.178;8.370;2023-06-14T16:05:55;4.05;;;1.30;;
18857;SDS011;9558;50.178;8.370;2023-06-14T16:08:43;3.25;;;1.10;;
18857;SDS011;9558;50.178;8.370;2023-06-14T16:11:31;1.45;;;1.17;;
18857;SDS011;9558;50.178;8.370;2023-06-14T16:14:18;1.30;;;1.17;;
18857;SDS011;9558;50.178;8.370;2023-06-14T16:17:05;2.80;;;1.20;;
18857;SDS011;9558;50.178;8.370;2023-06-14T16:19:52;1.60;;;1.20;;
18857;SDS011;9558;50.178;8.370;2023-06-14T16:22:38;1.98;;;1.10;;
18857;SDS011;9558;50.178;8.370;2023-06-14T16:25:25;2.03;;;1.45;;
18857;SDS011;9558;50.178;8.370;2023-06-14T16:28:14;1.40;;;1.30;;
18857;SDS011;9558;50.178;8.370;2023-06-14T16:31:00;2.25;;;1.15;;
18857;SDS011;9558;50.178;8.370;2023-06-14T16:33:47;1.83;;;1.30;;
18857;SDS011;9558;50.178;8.370;2023-06-14T16:36:39;1.35;;;1.05;;
18857;SDS011;9558;50.178;8.370;2023-06-14T16:39:26;2.88;;;1.38;;
18857;SDS011;9558;50.178;8.370;2023-06-14T16:42:12;1.50;;;1.23;;
18857;SDS011;9558;50.178;8.370;2023-06-14T16:45:01;2.75;;;1.17;;
18857;SDS011;9558;50.178;8.370;2023-06-14T16:47:47;1.30;;;1.13;;
18857;SDS011;9558;50.178;8.370;2023-06-14T16:50:34;1.00;;;0.90;;
18857;SDS011;9558;50.178;8.370;2023-06-14T16:53:21;1.50;;;1.25;;
18857;SDS011;9558;50.178;8.370;2023-06-14T16:56:08;3.15;;;1.20;;
18857;SDS011;9558;50.178;8.370;2023-06-14T16:58:55;2.00;;;1.50;;
18857;SDS011;9558;50.178;8.370;2023-06-14T17:01:44;1.20;;;1.10;;
18857;SDS011;9558;50.178;8.370;2023-06-14T17:04:30;1.30;;;1.15;;
18857;SDS011;9558;50.178;8.370;2023-06-14T17:07:18;2.60;;;1.15;;
18857;SDS011;9558;50.178;8.370;2023-06-14T17:10:05;1.42;;;1.20;;
18857;SDS011;9558;50.178;8.370;2023-06-14T17:12:52;1.35;;;1.10;;
18857;SDS011;9558;50.178;8.370;2023-06-14T17:15:39;1.88;;;1.50;;